Orbital elements of FENGYUN 1C DEB
| Launched | 9 May 1999 |
| Flight ended | – |
| Launch site | Taiyuan Space Center, PRC |
| Owner | People's Republic of China |
| NORAD ID | 31165 |
| Date fetched |
Epoch osculation |
Inc. [°] |
Ecc. | RA asc node [hr] |
Arg Peri. [°] |
Mean anom [°] |
Mean motion [rev/day] |
Abs. mag |
| Date fetched |
Epoch osculation |
Inc. [°] |
Ecc. | RA asc node [hr] |
Arg Peri. [°] |
Mean anom [°] |
Mean motion [rev/day] |
Abs. mag |
| 2026 May 08 17:57 | 2026 May 05 11:46:27 | 98.8648 | 0.00684 | 13.5583 | 146.4062 | 228.2904 | 14.73430 | – |
| 2026 May 07 17:58 | 2026 May 05 11:46:27 | 98.8648 | 0.00684 | 13.5583 | 146.4062 | 228.2904 | 14.73430 | – |
| 2026 May 06 17:57 | 2026 May 05 11:46:27 | 98.8648 | 0.00684 | 13.5583 | 146.4062 | 228.2904 | 14.73430 | – |
| 2026 May 05 17:57 | 2026 May 05 11:46:27 | 98.8648 | 0.00684 | 13.5583 | 146.4062 | 228.2904 | 14.73430 | – |
| 2026 May 04 17:57 | 2026 Apr 30 11:10:31 | 98.8654 | 0.00683 | 13.1925 | 161.7568 | 228.2904 | 14.73430 | – |
| 2026 May 03 17:57 | 2026 Apr 30 11:10:31 | 98.8654 | 0.00683 | 13.1925 | 161.7568 | 228.2904 | 14.73430 | – |
| 2026 May 02 17:57 | 2026 Apr 30 11:10:31 | 98.8654 | 0.00683 | 13.1925 | 161.7568 | 228.2904 | 14.73430 | – |
| 2026 May 01 17:56 | 2026 Apr 30 11:10:31 | 98.8654 | 0.00683 | 13.1925 | 161.7568 | 228.2904 | 14.73430 | – |
| 2026 Apr 30 17:56 | 2026 Apr 30 11:10:31 | 98.8654 | 0.00683 | 13.1925 | 161.7568 | 228.2904 | 14.73430 | – |
| 2026 Apr 29 17:57 | 2026 Apr 24 03:39:01 | 98.8650 | 0.00681 | 12.7330 | 181.1786 | 228.2904 | 14.73430 | – |
| 2026 Apr 28 17:56 | 2026 Apr 24 03:39:01 | 98.8650 | 0.00681 | 12.7330 | 181.1786 | 228.2904 | 14.73430 | – |
| 2026 Apr 27 17:58 | 2026 Apr 24 03:39:01 | 98.8650 | 0.00681 | 12.7330 | 181.1786 | 228.2904 | 14.73430 | – |
| 2026 Apr 26 17:58 | 2026 Apr 24 03:39:01 | 98.8650 | 0.00681 | 12.7330 | 181.1786 | 228.2904 | 14.73430 | – |
| 2026 Apr 25 17:58 | 2026 Apr 24 03:39:01 | 98.8650 | 0.00681 | 12.7330 | 181.1786 | 228.2904 | 14.73430 | – |
| 2026 Apr 24 17:59 | 2026 Apr 24 03:39:01 | 98.8650 | 0.00681 | 12.7330 | 181.1786 | 228.2904 | 14.73430 | – |
| 2026 Apr 23 17:57 | 2026 Apr 17 10:24:11 | 98.8660 | 0.00676 | 12.2440 | 201.9144 | 228.2904 | 14.73430 | – |
| 2026 Apr 22 17:57 | 2026 Apr 17 10:24:11 | 98.8660 | 0.00676 | 12.2440 | 201.9144 | 228.2904 | 14.73430 | – |
| 2026 Apr 21 17:57 | 2026 Apr 17 10:24:11 | 98.8660 | 0.00676 | 12.2440 | 201.9144 | 228.2904 | 14.73430 | – |
| 2026 Apr 20 17:57 | 2026 Apr 17 10:24:11 | 98.8660 | 0.00676 | 12.2440 | 201.9144 | 228.2904 | 14.73430 | – |
| 2026 Apr 19 17:58 | 2026 Apr 17 10:24:11 | 98.8660 | 0.00676 | 12.2440 | 201.9144 | 228.2904 | 14.73430 | – |
| 2026 Apr 18 17:56 | 2026 Apr 13 03:34:36 | 98.8660 | 0.00673 | 11.9322 | 215.2683 | 228.2904 | 14.73430 | – |
| 2026 Apr 16 17:57 | 2026 Apr 13 03:34:36 | 98.8660 | 0.00673 | 11.9322 | 215.2683 | 228.2904 | 14.73430 | – |
| 2026 Apr 14 17:57 | 2026 Apr 13 03:34:36 | 98.8660 | 0.00673 | 11.9322 | 215.2683 | 228.2904 | 14.73430 | – |
| 2026 Apr 13 17:57 | 2026 Apr 13 03:34:36 | 98.8660 | 0.00673 | 11.9322 | 215.2683 | 228.2904 | 14.73430 | – |
| 2026 Apr 12 17:57 | 2026 Apr 07 04:06:40 | 98.8656 | 0.00669 | 11.4972 | 234.0219 | 228.2904 | 14.73430 | – |
| 2026 Apr 11 17:57 | 2026 Apr 07 04:06:40 | 98.8656 | 0.00669 | 11.4972 | 234.0219 | 228.2904 | 14.73430 | – |